Time;durP1;ratioP1;P1;durP2;ratioP2;P2;SDS_P1;SDS_P2;PMS_P1;PMS_P2;Temp;Humidity;BMP_temperature;BMP_pressure;BME280_temperature;BME280_humidity;BME280_pressure;Samples;Min_cycle;Max_cycle;Signal;HPM_P1;HPM_P2
2022/05/05 00:01:50;;;;;;;19.30;9.85;;;;;;;8.36;100.00;162749.91;4985808;28;20552;-54
2022/05/05 00:04:16;;;;;;;15.73;11.60;;;;;;;8.33;100.00;162743.19;4994841;28;20038;-56
2022/05/05 00:06:41;;;;;;;17.05;11.55;;;;;;;8.21;100.00;162712.19;4993181;28;20049;-56
2022/05/05 00:09:07;;;;;;;17.25;12.43;;;;;;;8.16;100.00;162698.66;4995329;28;20088;-56
2022/05/05 00:14:27;;;;;;;11.57;9.32;;;;;;;8.12;100.00;162687.91;4994475;28;20042;-56
2022/05/05 00:16:54;;;;;;;26.33;12.85;;;;;;;8.11;100.00;162685.19;4978941;28;20050;-56
2022/05/05 00:19:19;;;;;;;15.15;11.13;;;;;;;8.07;100.00;162674.44;4975457;28;20050;-56
2022/05/05 00:21:45;;;;;;;15.90;11.35;;;;;;;8.03;100.00;162663.63;4973430;28;20578;-56
2022/05/05 00:24:11;;;;;;;14.82;10.25;;;;;;;7.96;100.00;162644.78;4975232;28;20027;-56
2022/05/05 00:26:36;;;;;;;13.68;10.55;;;;;;;7.89;100.00;162628.63;4973650;28;20097;-56
2022/05/05 00:29:02;;;;;;;19.38;12.10;;;;;;;7.88;100.00;162625.91;4979760;28;20030;-56
2022/05/05 00:31:28;;;;;;;18.10;12.35;;;;;;;7.88;100.00;162625.91;4993083;28;20054;-56
2022/05/05 00:33:53;;;;;;;23.20;11.93;;;;;;;7.87;100.00;162621.88;4994464;28;20474;-56
2022/05/05 00:36:18;;;;;;;20.55;12.27;;;;;;;7.84;100.00;162615.16;4992766;28;20053;-56
2022/05/05 00:38:44;;;;;;;14.73;11.10;;;;;;;7.80;100.00;162603.03;4994077;28;20390;-56
2022/05/05 00:41:09;;;;;;;13.90;9.45;;;;;;;7.78;100.00;162599.00;4993117;28;20038;-56
2022/05/05 00:43:35;;;;;;;23.95;11.32;;;;;;;7.76;100.00;162594.91;4993258;28;20145;-56
2022/05/05 00:46:02;;;;;;;17.73;11.35;;;;;;;7.70;100.00;162577.44;4992937;28;20042;-56
2022/05/05 00:48:27;;;;;;;15.63;12.10;;;;;;;7.72;100.00;162582.78;4993243;28;20057;-56
2022/05/05 00:50:54;;;;;;;20.20;12.70;;;;;;;7.63;100.00;162561.22;4992704;28;20041;-56
2022/05/05 00:53:20;;;;;;;18.67;11.02;;;;;;;7.67;100.00;162569.31;4994263;28;20462;-57
2022/05/05 00:55:45;;;;;;;18.65;12.10;;;;;;;7.63;100.00;162561.22;4992520;28;20042;-56
2022/05/05 00:58:13;;;;;;;23.60;14.23;;;;;;;7.57;100.00;162543.75;4978900;28;20031;-56
2022/05/05 01:00:38;;;;;;;24.33;13.07;;;;;;;7.54;100.00;162537.00;4973255;28;20388;-56
2022/05/05 01:03:07;;;;;;;22.67;13.82;;;;;;;7.47;100.00;162518.16;4974347;28;20047;-56
2022/05/05 01:05:33;;;;;;;25.83;12.57;;;;;;;7.41;100.00;162502.00;4972313;28;20409;-56
2022/05/05 01:07:59;;;;;;;16.83;11.57;;;;;;;7.34;100.00;162483.09;4974524;28;20121;-56
2022/05/05 01:10:25;;;;;;;23.70;13.75;;;;;;;7.25;100.00;162461.59;4973031;28;20482;-55
2022/05/05 01:12:52;;;;;;;21.67;13.85;;;;;;;7.17;100.00;162440.03;4987192;28;20065;-56
2022/05/05 01:15:18;;;;;;;19.08;14.38;;;;;;;7.11;100.00;162423.88;4993801;28;20603;-55
2022/05/05 01:17:44;;;;;;;18.05;13.32;;;;;;;7.02;100.00;162399.63;4991886;28;20042;-55
2022/05/05 01:20:14;;;;;;;28.17;13.98;;;;;;;6.92;100.00;162375.38;4993251;28;20033;-55
2022/05/05 01:22:39;;;;;;;22.58;12.68;;;;;;;6.84;100.00;162353.81;4992129;28;20038;-56
2022/05/05 01:30:33;;;;;;;18.55;13.30;;;;;;;6.56;100.00;162281.13;4972658;28;20041;-56
2022/05/05 01:32:59;;;;;;;16.52;12.95;;;;;;;6.49;100.00;162262.28;4974111;28;20023;-56
2022/05/05 01:35:24;;;;;;;18.13;14.32;;;;;;;6.46;100.00;162254.19;4972421;28;20086;-56
2022/05/05 01:37:50;;;;;;;22.48;13.93;;;;;;;6.42;100.00;162244.75;4973865;28;20387;-56
2022/05/05 01:40:16;;;;;;;26.15;14.48;;;;;;;6.37;100.00;162230.00;4974024;28;20027;-56
2022/05/05 01:42:41;;;;;;;22.05;13.32;;;;;;;6.31;100.00;162216.50;4983532;28;20603;-57
2022/05/05 01:45:07;;;;;;;21.98;12.75;;;;;;;6.27;100.00;162204.38;4992975;28;20022;-57
2022/05/05 01:47:32;;;;;;;25.20;13.70;;;;;;;6.23;100.00;162194.94;4991375;28;20050;-56
2022/05/05 01:49:59;;;;;;;21.92;13.18;;;;;;;6.18;100.00;162181.50;4992822;28;20470;-57
2022/05/05 01:52:24;;;;;;;24.13;15.10;;;;;;;6.13;100.00;162168.06;4991776;28;20038;-57
2022/05/05 01:54:50;;;;;;;19.50;11.98;;;;;;;6.10;100.00;162159.97;4989987;28;20030;-57
2022/05/05 01:57:15;;;;;;;33.10;15.88;;;;;;;6.03;100.00;162143.84;4972969;28;20054;-57
2022/05/05 01:59:40;;;;;;;19.00;14.20;;;;;;;5.97;100.00;162127.63;4973047;28;20026;-57
2022/05/05 02:02:06;;;;;;;24.05;15.73;;;;;;;5.89;100.00;162106.09;4971979;28;20061;-56
2022/05/05 02:04:31;;;;;;;31.15;16.40;;;;;;;5.95;100.00;162122.25;4972794;28;20023;-56
2022/05/05 02:06:57;;;;;;;21.10;14.77;;;;;;;5.90;100.00;162108.81;4972020;28;20043;-56
2022/05/05 02:09:22;;;;;;;22.33;14.77;;;;;;;5.89;100.00;162106.09;4973334;28;20077;-56
2022/05/05 02:11:48;;;;;;;17.90;13.98;;;;;;;5.82;100.00;162087.25;4971355;28;20050;-56
2022/05/05 02:14:13;;;;;;;17.77;12.07;;;;;;;5.73;100.00;162064.41;4973625;28;20026;-56
2022/05/05 02:16:38;;;;;;;22.67;15.60;;;;;;;5.67;100.00;162049.59;4971523;28;20049;-56
2022/05/05 02:19:04;;;;;;;20.35;14.88;;;;;;;5.64;100.00;162040.19;4972732;28;20035;-57
2022/05/05 02:21:29;;;;;;;24.15;15.48;;;;;;;5.57;100.00;162022.66;4971377;28;20039;-57
2022/05/05 02:23:54;;;;;;;26.23;15.35;;;;;;;5.51;100.00;162006.53;4983984;28;20037;-56
2022/05/05 02:26:20;;;;;;;24.00;15.30;;;;;;;5.46;100.00;161994.41;4990926;28;20046;-56
2022/05/05 02:28:45;;;;;;;29.90;18.60;;;;;;;5.35;100.00;161966.16;4992190;28;20042;-56
2022/05/05 02:31:10;;;;;;;26.42;15.38;;;;;;;5.37;100.00;161971.56;4991040;28;20053;-56
2022/05/05 02:33:36;;;;;;;18.27;14.82;;;;;;;5.29;100.00;161950.03;4992076;28;20026;-57
2022/05/05 02:38:47;;;;;;;22.77;13.48;;;;;;;5.18;100.00;161920.41;4991787;28;20300;-57
2022/05/05 02:41:13;;;;;;;26.13;15.93;;;;;;;5.15;100.00;161912.38;4990605;28;20042;-56
2022/05/05 02:43:38;;;;;;;23.60;15.02;;;;;;;5.08;100.00;161896.25;4991457;28;20481;-56
2022/05/05 02:46:03;;;;;;;26.65;12.57;;;;;;;5.03;100.00;161882.75;4990693;28;20046;-56
2022/05/05 02:48:28;;;;;;;23.88;16.25;;;;;;;4.92;100.00;161853.19;4991584;28;20033;-55
2022/05/05 02:50:54;;;;;;;21.55;14.88;;;;;;;4.90;100.00;161847.81;4987334;28;20411;-55
2022/05/05 02:56:04;;;;;;;22.48;16.52;;;;;;;4.81;100.00;161823.59;4971166;28;20045;-56
2022/05/05 02:58:29;;;;;;;17.02;14.90;;;;;;;4.78;100.00;161815.56;4972198;28;20026;-56
2022/05/05 03:00:55;;;;;;;20.73;14.77;;;;;;;4.73;100.00;161804.75;4970903;28;20457;-56
2022/05/05 03:03:20;;;;;;;16.77;11.77;;;;;;;4.71;100.00;161799.41;4972041;28;20053;-56
2022/05/05 03:05:46;;;;;;;20.27;12.00;;;;;;;4.61;100.00;161772.50;4971045;28;20046;-56
2022/05/05 03:08:11;;;;;;;15.30;9.85;;;;;;;4.56;100.00;161759.09;4972392;28;20026;-56
2022/05/05 03:10:36;;;;;;;23.90;14.90;;;;;;;4.53;100.00;161751.00;4970002;28;20035;-56
2022/05/05 03:13:02;;;;;;;16.63;12.38;;;;;;;4.45;100.00;161732.19;4972350;28;20035;-55
2022/05/05 03:15:27;;;;;;;28.33;18.35;;;;;;;4.49;100.00;161740.25;4970575;28;20463;-56
2022/05/05 03:17:52;;;;;;;19.58;15.82;;;;;;;4.45;100.00;161730.84;4972128;28;20098;-56
2022/05/05 03:20:18;;;;;;;25.10;17.58;;;;;;;4.45;100.00;161732.19;4986016;28;20030;-56
2022/05/05 03:22:43;;;;;;;22.73;14.95;;;;;;;4.43;100.00;161726.78;4989990;28;20465;-56
2022/05/05 03:25:09;;;;;;;18.48;11.13;;;;;;;4.43;100.00;161726.78;4991159;28;20061;-56
2022/05/05 03:27:39;;;;;;;14.05;9.02;;;;;;;4.41;100.00;161721.44;4990080;28;20035;-56
2022/05/05 03:30:05;;;;;;;13.63;10.55;;;;;;;4.36;100.00;161707.97;4991688;28;20037;-56
2022/05/05 03:32:32;;;;;;;29.55;18.10;;;;;;;4.35;100.00;161705.31;4989391;28;20430;-56
2022/05/05 03:34:58;;;;;;;29.27;16.95;;;;;;;4.35;100.00;161705.31;4978782;28;20437;-56
2022/05/05 03:37:23;;;;;;;40.42;19.63;;;;;;;4.32;100.00;161697.22;4970652;28;20110;-56
2022/05/05 03:39:48;;;;;;;17.77;12.27;;;;;;;4.29;100.00;161689.16;4971563;28;20089;-56
2022/05/05 03:42:14;;;;;;;29.83;17.15;;;;;;;4.26;100.00;161681.13;4970595;28;20049;-56
2022/05/05 03:44:39;;;;;;;17.85;12.63;;;;;;;4.23;100.00;161674.41;4972108;28;20387;-56
2022/05/05 03:47:05;;;;;;;30.60;17.00;;;;;;;4.21;100.00;161667.63;4973957;28;20039;-56
2022/05/05 03:49:30;;;;;;;17.77;12.73;;;;;;;4.20;100.00;161665.00;4991087;28;20118;-56
2022/05/05 03:51:56;;;;;;;21.23;16.55;;;;;;;4.17;100.00;161658.22;4990003;28;20042;-56
2022/05/05 03:54:24;;;;;;;23.40;15.45;;;;;;;4.16;100.00;161655.59;4991548;28;20022;-56
2022/05/05 03:56:49;;;;;;;24.42;14.88;;;;;;;4.16;100.00;161655.59;4989754;28;20042;-56
2022/05/05 03:59:14;;;;;;;24.95;15.07;;;;;;;4.15;100.00;161651.50;4991320;28;20082;-56
2022/05/05 04:01:40;;;;;;;23.65;16.70;;;;;;;4.18;100.00;161659.59;4987703;28;20069;-56
2022/05/05 04:04:05;;;;;;;25.40;15.82;;;;;;;4.20;100.00;161665.00;4990890;28;20030;-56
2022/05/05 04:06:30;;;;;;;26.95;18.58;;;;;;;4.25;100.00;161679.75;4989713;28;20045;-56
2022/05/05 04:08:56;;;;;;;27.98;16.92;;;;;;;4.28;100.00;161686.50;4991173;28;20489;-57
2022/05/05 04:11:21;;;;;;;21.05;16.20;;;;;;;4.29;100.00;161690.53;4989509;28;20049;-60
2022/05/05 04:13:46;;;;;;;27.45;16.30;;;;;;;4.32;100.00;161697.22;4989417;28;20441;-56
2022/05/05 04:16:12;;;;;;;24.48;18.63;;;;;;;4.36;100.00;161707.97;4971433;28;20043;-56
2022/05/05 04:18:37;;;;;;;16.85;13.88;;;;;;;4.39;100.00;161714.72;4974586;28;20030;-55
2022/05/05 04:21:03;;;;;;;32.63;18.60;;;;;;;4.44;100.00;161729.47;4982134;28;20057;-56
2022/05/05 04:23:29;;;;;;;31.63;16.52;;;;;;;4.52;100.00;161748.31;4974003;28;20053;-56
2022/05/05 04:25:55;;;;;;;29.20;19.48;;;;;;;4.58;100.00;161765.81;4973379;28;20031;-55
2022/05/05 04:28:22;;;;;;;15.95;13.68;;;;;;;4.63;100.00;161777.91;4976233;28;20153;-56
2022/05/05 04:30:48;;;;;;;19.42;15.10;;;;;;;4.65;100.00;161783.28;4976999;28;20050;-56
2022/05/05 04:33:13;;;;;;;30.60;19.67;;;;;;;4.71;100.00;161798.06;4994195;28;20052;-55
2022/05/05 04:35:39;;;;;;;41.25;20.13;;;;;;;4.76;100.00;161812.84;4992858;28;20077;-55
2022/05/05 04:38:05;;;;;;;30.00;17.02;;;;;;;4.82;100.00;161826.28;4994391;28;20042;-56
2022/05/05 04:40:31;;;;;;;32.67;17.25;;;;;;;4.87;100.00;161841.09;4990531;28;20075;-56
2022/05/05 04:42:56;;;;;;;23.20;13.98;;;;;;;4.93;100.00;161857.22;5009400;28;20068;-56
2022/05/05 04:45:22;;;;;;;26.65;15.15;;;;;;;4.98;100.00;161868.00;4994181;28;20146;-56
2022/05/05 04:47:47;;;;;;;27.08;14.48;;;;;;;5.00;100.00;161873.34;4992247;28;20433;-56
2022/05/05 04:50:12;;;;;;;24.95;16.23;;;;;;;5.06;100.00;161890.84;4994192;28;20027;-55
2022/05/05 04:52:38;;;;;;;21.40;14.60;;;;;;;5.13;100.00;161906.97;4992570;28;20046;-56
2022/05/05 04:55:03;;;;;;;19.83;13.90;;;;;;;5.21;100.00;161928.50;4993968;28;20019;-56
2022/05/05 04:57:29;;;;;;;28.65;17.08;;;;;;;5.33;100.00;161960.78;4992263;28;20042;-56
2022/05/05 04:59:54;;;;;;;24.20;14.82;;;;;;;5.38;100.00;161974.25;4994313;28;20022;-56
2022/05/05 05:02:19;;;;;;;21.73;14.73;;;;;;;5.49;100.00;162001.13;4992194;28;20058;-55
2022/05/05 05:04:45;;;;;;;21.30;15.82;;;;;;;5.59;100.00;162028.06;4993719;28;20030;-55
2022/05/05 05:07:10;;;;;;;24.67;15.23;;;;;;;5.68;100.00;162052.28;4992473;28;20457;-55
2022/05/05 05:09:36;;;;;;;25.00;15.23;;;;;;;5.80;100.00;162081.88;4993279;28;20034;-55
2022/05/05 05:12:02;;;;;;;33.83;18.85;;;;;;;5.92;100.00;162114.16;4992450;28;20046;-56
2022/05/05 05:14:27;;;;;;;24.90;18.58;;;;;;;6.03;100.00;162143.84;4993083;28;20713;-56
2022/05/05 05:16:52;;;;;;;28.23;20.90;;;;;;;6.15;100.00;162173.41;4991448;28;20042;-56
2022/05/05 05:19:18;;;;;;;24.30;18.23;;;;;;;6.31;100.00;162216.50;4992995;28;20494;-56
2022/05/05 05:21:44;;;;;;;25.80;17.17;;;;;;;6.37;100.00;162231.31;4991596;28;20053;-56
2022/05/05 05:24:09;;;;;;;33.33;20.65;;;;;;;6.56;100.00;162281.13;4992684;28;20038;-56
2022/05/05 05:26:34;;;;;;;28.13;18.88;;;;;;;6.75;100.00;162329.56;4991570;28;20560;-56
2022/05/05 05:29:00;;;;;;;28.65;17.92;;;;;;;6.95;100.00;162383.47;4993003;28;20023;-56
2022/05/05 05:31:25;;;;;;;28.90;20.25;;;;;;;7.15;100.00;162435.94;4990998;28;20402;-56
2022/05/05 05:33:50;;;;;;;36.08;18.17;;;;;;;7.34;100.00;162483.09;4992728;28;20014;-56
2022/05/05 05:36:16;;;;;;;21.15;16.17;;;;;;;7.50;100.00;162526.19;4991682;28;20042;-56
2022/05/05 05:38:41;;;;;;;23.25;16.40;;;;;;;7.66;100.00;162568.00;4992173;28;20030;-56
2022/05/05 05:41:08;;;;;;;18.58;13.48;;;;;;;7.79;100.00;162601.66;4991522;28;20498;-56
2022/05/05 05:43:33;;;;;;;25.95;18.35;;;;;;;7.93;100.00;162639.38;4992680;28;20029;-56
2022/05/05 05:45:59;;;;;;;28.00;18.40;;;;;;;8.09;100.00;162679.81;4990845;28;20038;-56
2022/05/05 05:48:25;;;;;;;20.27;14.05;;;;;;;8.24;100.00;162720.25;4992760;28;20015;-56
2022/05/05 05:50:50;;;;;;;24.65;16.17;;;;;;;8.34;100.00;162744.50;4991054;28;20089;-56
2022/05/05 05:53:15;;;;;;;21.10;16.30;;;;;;;8.47;100.00;162778.28;4992579;28;20089;-56
2022/05/05 05:55:41;;;;;;;31.63;14.52;;;;;;;8.57;100.00;162806.56;4990781;28;20026;-55
2022/05/05 05:58:07;;;;;;;21.65;17.25;;;;;;;8.69;100.00;162836.22;4992428;28;20076;-56
2022/05/05 06:00:32;;;;;;;25.75;12.35;;;;;;;8.82;100.00;162869.94;4990778;28;20025;-55
2022/05/05 06:05:42;;;;;;;22.55;13.50;;;;;;;8.99;100.00;162914.41;4991087;28;20138;-56
2022/05/05 06:08:08;;;;;;;28.83;14.60;;;;;;;9.04;100.00;162927.94;4992471;28;20022;-56
2022/05/05 06:10:33;;;;;;;32.67;15.32;;;;;;;9.09;100.00;162941.41;4990889;28;20022;-55
2022/05/05 06:12:59;;;;;;;23.85;13.77;;;;;;;9.14;100.00;162953.53;4992711;28;20026;-55
2022/05/05 06:15:24;;;;;;;23.63;16.13;;;;;;;9.21;100.00;162972.41;4992396;28;20014;-55
2022/05/05 06:17:50;;;;;;;21.23;14.68;;;;;;;9.35;100.00;163008.81;4990626;28;20513;-55
2022/05/05 06:20:16;;;;;;;28.92;15.20;;;;;;;9.48;100.00;163043.91;4990828;28;20540;-55
2022/05/05 06:22:42;;;;;;;21.63;13.82;;;;;;;9.51;100.00;163051.97;4988798;28;20046;-55
2022/05/05 06:25:08;;;;;;;18.95;13.15;;;;;;;9.62;100.00;163078.97;4992568;28;20595;-55
2022/05/05 06:27:33;;;;;;;26.40;15.07;;;;;;;9.68;100.00;163095.16;4990875;28;20073;-55
2022/05/05 06:30:02;;;;;;;17.58;12.82;;;;;;;9.78;100.00;163120.78;4992025;28;20057;-55
2022/05/05 06:32:27;;;;;;;;;;;;;;;9.91;100.00;163154.50;4991420;28;20124;-55
2022/05/05 06:34:54;;;;;;;26.90;14.18;;;;;;;10.07;100.00;163197.69;4992233;28;20001;-55
2022/05/05 06:37:19;;;;;;;25.48;13.65;;;;;;;10.26;100.00;163247.63;4990693;28;20050;-55
2022/05/05 06:39:44;;;;;;;15.10;12.75;;;;;;;10.44;100.00;163294.91;4991995;28;20560;-55
2022/05/05 06:42:10;;;;;;;21.83;13.48;;;;;;;10.62;100.00;163340.78;4990933;28;20069;-55
2022/05/05 06:44:35;;;;;;;23.58;10.38;;;;;;;11.00;100.00;163440.69;4991053;28;20474;-53
2022/05/05 06:47:01;;;;;;;25.88;13.70;;;;;;;11.30;100.00;163519.00;4990504;28;20042;-53
2022/05/05 06:49:26;;;;;;;13.73;10.20;;;;;;;11.84;100.00;163659.47;4991993;28;20473;-55
2022/05/05 06:51:51;;;;;;;14.02;10.77;;;;;;;12.84;100.00;163921.69;4990648;28;20047;-55
2022/05/05 06:54:16;;;;;;;22.17;10.93;;;;;;;14.26;100.00;164294.91;4991754;28;20018;-54
2022/05/05 06:56:42;;;;;;;17.73;9.93;;;;;;;15.22;100.00;164546.72;4990547;28;20486;-55
2022/05/05 06:59:07;;;;;;;17.67;9.82;;;;;;;15.75;100.00;164684.75;4991898;28;20049;-54
2022/05/05 07:07:02;;;;;;;18.88;8.65;;;;;;;16.00;100.00;164749.81;4990268;28;20054;-54
2022/05/05 07:12:11;;;;;;;16.13;8.43;;;;;;;16.87;100.00;164978.72;4990503;28;20491;-55
2022/05/05 07:14:36;;;;;;;18.45;8.25;;;;;;;17.23;100.00;165072.28;4991246;28;20030;-54
2022/05/05 07:17:02;;;;;;;17.08;8.43;;;;;;;17.13;100.00;165047.88;4990569;28;20498;-55
2022/05/05 07:19:27;;;;;;;10.45;7.03;;;;;;;17.25;100.00;165079.06;4991258;28;20393;-54
2022/05/05 07:21:53;;;;;;;17.05;8.73;;;;;;;17.24;100.00;165076.34;4990101;28;20108;-55
2022/05/05 07:24:18;;;;;;;11.40;6.85;;;;;;;17.00;100.00;165011.28;4991875;28;20381;-55
2022/05/05 07:26:44;;;;;;;11.95;7.65;;;;;;;17.00;100.00;165011.28;4990290;28;20042;-54
2022/05/05 07:29:09;;;;;;;15.88;8.57;;;;;;;16.61;100.00;164910.97;4991186;28;20022;-54
2022/05/05 07:31:34;;;;;;;23.38;7.72;;;;;;;16.15;100.00;164789.09;4990124;28;20363;-54
2022/05/05 07:34:00;;;;;;;13.20;8.52;;;;;;;15.60;100.00;164645.50;4991560;28;20053;-54
2022/05/05 07:36:25;;;;;;;11.98;6.90;;;;;;;15.59;100.00;164641.47;4985724;28;20042;-54
2022/05/05 07:38:51;;;;;;;17.50;8.40;;;;;;;15.09;100.00;164510.13;4983523;28;20018;-54
2022/05/05 07:41:16;;;;;;;24.02;8.23;;;;;;;14.86;100.00;164451.91;4989838;28;20116;-55
2022/05/05 07:43:42;;;;;;;22.13;8.07;;;;;;;14.76;100.00;164424.88;4990860;28;20042;-54
2022/05/05 07:46:07;;;;;;;17.55;9.13;;;;;;;14.35;100.00;164316.56;4989879;28;20045;-54
2022/05/05 07:48:32;;;;;;;11.75;8.23;;;;;;;14.31;100.00;164307.09;4990981;28;20026;-53
2022/05/05 07:50:58;;;;;;;12.52;8.75;;;;;;;14.20;100.00;164277.34;4990223;28;20038;-54
2022/05/05 07:53:23;;;;;;;10.05;8.68;;;;;;;14.39;100.00;164327.41;4991180;28;20418;-54
2022/05/05 07:55:49;;;;;;;14.57;7.63;;;;;;;14.45;100.00;164343.66;4989665;28;20402;-54
2022/05/05 07:58:14;;;;;;;20.45;8.75;;;;;;;14.47;100.00;164349.06;4995060;28;20018;-54
2022/05/05 08:00:39;;;;;;;14.88;9.25;;;;;;;14.76;100.00;164424.88;4992900;28;20053;-55
2022/05/05 08:03:05;;;;;;;16.75;8.65;;;;;;;15.08;100.00;164508.75;4995147;28;20050;-54
2022/05/05 08:05:30;;;;;;;12.90;8.88;;;;;;;15.30;100.00;164566.97;4993323;28;20498;-54
2022/05/05 08:07:56;;;;;;;13.00;8.55;;;;;;;15.49;100.00;164617.06;4994748;28;20371;-54
2022/05/05 08:10:22;;;;;;;17.35;7.95;;;;;;;15.59;100.00;164641.47;4994101;28;20092;-54
2022/05/05 08:12:47;;;;;;;10.70;7.00;;;;;;;15.78;100.00;164691.56;4991811;28;20297;-54
2022/05/05 08:15:14;;;;;;;13.68;7.35;;;;;;;16.02;100.00;164755.22;4994805;28;20536;-54
2022/05/05 08:17:40;;;;;;;9.57;6.57;;;;;;;15.80;100.00;164698.31;4993276;28;20579;-55
2022/05/05 08:20:07;;;;;;;10.32;8.25;;;;;;;15.59;100.00;164641.47;4994743;28;20200;-55
2022/05/05 08:22:33;;;;;;;17.30;7.55;;;;;;;16.02;100.00;164755.22;4993320;28;20493;-54
2022/05/05 08:30:26;;;;;;;12.15;6.25;;;;;;;18.01;91.45;165278.34;4992746;28;20454;-54
2022/05/05 08:32:51;;;;;;;15.95;7.68;;;;;;;18.30;88.37;165352.91;4994566;28;20022;-55
2022/05/05 08:35:17;;;;;;;13.30;7.13;;;;;;;18.80;87.02;165484.47;4994890;28;20385;-55
2022/05/05 08:37:42;;;;;;;15.23;6.07;;;;;;;18.61;86.65;165435.63;4992834;28;20065;-55
2022/05/05 08:40:10;;;;;;;6.75;5.65;;;;;;;18.21;87.75;165331.22;4994403;28;20145;-54
2022/05/05 08:42:36;;;;;;;11.00;6.28;;;;;;;17.59;86.05;165167.16;4992301;28;20042;-54
2022/05/05 08:45:01;;;;;;;11.45;6.32;;;;;;;17.47;86.43;165134.59;4993964;28;20022;-54
2022/05/05 08:47:31;;;;;;;9.10;6.15;;;;;;;17.27;84.47;165083.09;4992768;28;20046;-55
2022/05/05 08:49:58;;;;;;;7.63;5.68;;;;;;;17.11;85.84;165042.44;4994240;28;20520;-54
2022/05/05 08:52:25;;;;;;;13.23;5.30;;;;;;;17.12;88.22;165043.81;4992325;28;20065;-54
2022/05/05 08:54:50;;;;;;;10.93;5.85;;;;;;;17.32;89.92;165095.31;4994511;28;20022;-54
2022/05/05 08:57:16;;;;;;;10.20;4.65;;;;;;;17.49;88.88;165141.41;4992871;28;20101;-54
2022/05/05 08:59:41;;;;;;;8.95;6.10;;;;;;;17.71;86.93;165199.66;4993302;28;20445;-54
2022/05/05 09:02:07;;;;;;;10.43;6.68;;;;;;;18.68;84.69;165454.59;4992550;28;20062;-55
2022/05/05 09:04:33;;;;;;;14.45;6.78;;;;;;;18.17;87.18;165319.00;4994002;28;20430;-55
2022/05/05 09:06:59;;;;;;;10.30;6.75;;;;;;;18.19;89.19;165324.44;4992444;28;20124;-55
2022/05/05 09:09:25;;;;;;;8.65;6.97;;;;;;;18.39;87.93;165378.66;4993268;28;20373;-55
2022/05/05 09:12:13;;;;;;;7.05;5.30;;;;;;;18.17;85.84;165320.34;4992274;28;20049;-54
2022/05/05 09:14:39;;;;;;;11.63;5.60;;;;;;;19.14;81.97;165574.03;4993445;28;20038;-54
2022/05/05 09:17:08;;;;;;;7.90;6.60;;;;;;;18.93;81.05;165519.78;4992485;28;20081;-54
2022/05/05 09:19:38;;;;;;;8.82;6.28;;;;;;;19.52;76.99;165674.41;4993682;28;20117;-55
2022/05/05 09:22:05;;;;;;;7.35;5.85;;;;;;;19.55;76.89;165682.53;4991984;28;20076;-55
2022/05/05 09:24:36;;;;;;;8.35;5.25;;;;;;;19.42;76.57;165647.25;4993175;28;20033;-55
2022/05/05 09:27:26;;;;;;;6.32;5.53;;;;;;;20.09;76.00;165825.09;4989614;28;20050;-54
2022/05/05 09:30:12;;;;;;;6.45;5.72;;;;;;;20.47;74.41;165924.16;4993399;28;20031;-54
2022/05/05 09:32:42;;;;;;;6.70;5.18;;;;;;;20.09;75.34;165823.72;4991632;28;20120;-55
2022/05/05 09:35:10;;;;;;;9.55;5.43;;;;;;;20.01;75.31;165802.00;4992614;28;20026;-55
2022/05/05 09:37:37;;;;;;;7.25;5.00;;;;;;;19.54;75.05;165678.47;4991867;28;20042;-54
2022/05/05 09:40:06;;;;;;;9.30;5.45;;;;;;;19.74;74.06;165731.41;4992968;28;20022;-54
2022/05/05 09:42:40;;;;;;;8.48;4.93;;;;;;;19.76;74.05;165736.84;4991291;28;20108;-55
2022/05/05 09:45:25;;;;;;;6.57;5.07;;;;;;;19.90;73.45;165774.88;4993494;28;20741;-54
2022/05/05 09:47:53;;;;;;;9.45;6.63;;;;;;;20.25;72.42;165867.16;4992002;28;20077;-55
2022/05/05 09:50:29;;;;;;;9.40;6.13;;;;;;;20.36;75.84;165894.34;4993004;28;20026;-54
2022/05/05 09:58:41;;;;;;;7.60;6.00;;;;;;;20.31;72.15;165880.72;4992467;28;20081;-55
2022/05/05 10:01:13;;;;;;;8.63;5.88;;;;;;;20.36;73.92;165895.66;4988945;28;20061;-55
2022/05/05 10:04:00;;;;;;;11.82;6.53;;;;;;;20.28;73.29;165873.94;4992371;28;20076;-55
2022/05/05 10:06:28;;;;;;;7.45;5.78;;;;;;;20.37;74.97;165897.00;4991046;28;20048;-55
2022/05/05 10:08:56;;;;;;;10.50;6.70;;;;;;;20.76;77.38;166000.25;4992507;28;20631;-55
2022/05/05 10:11:22;;;;;;;13.20;6.65;;;;;;;21.05;70.04;166077.66;4984223;28;20518;-55
2022/05/05 10:13:49;;;;;;;7.50;6.57;;;;;;;21.32;71.05;166148.25;4980010;28;20018;-55
2022/05/05 10:16:15;;;;;;;10.43;5.82;;;;;;;21.63;71.32;166228.47;4991234;28;20038;-55
2022/05/05 10:18:42;;;;;;;15.73;6.95;;;;;;;21.89;70.71;166296.34;4990058;28;20018;-55
2022/05/05 10:21:13;;;;;;;10.68;5.68;;;;;;;21.45;72.69;166182.22;4990106;28;20176;-55
2022/05/05 10:24:10;;;;;;;6.75;5.63;;;;;;;21.56;71.83;166210.72;4978589;28;20034;-55
2022/05/05 10:26:36;;;;;;;23.13;6.43;;;;;;;21.79;68.08;166270.56;4971609;28;20042;-55
2022/05/05 10:29:02;;;;;;;19.17;7.25;;;;;;;21.53;69.39;166203.94;4972086;28;20105;-55
2022/05/05 10:31:30;;;;;;;8.85;6.50;;;;;;;21.86;68.01;166290.91;4970448;28;20126;-55
2022/05/05 10:34:00;;;;;;;11.27;7.28;;;;;;;22.18;69.02;166375.16;4973061;28;20033;-55
2022/05/05 10:36:26;;;;;;;7.30;6.20;;;;;;;22.37;64.89;166424.09;4970113;28;20489;-55
2022/05/05 10:38:52;;;;;;;10.18;6.65;;;;;;;22.55;63.97;166470.31;4976756;28;20037;-54
2022/05/05 10:41:30;;;;;;;10.45;6.22;;;;;;;22.31;65.28;166407.75;4971563;28;20039;-55
2022/05/05 10:44:16;;;;;;;7.77;6.23;;;;;;;22.17;63.21;166372.44;4972743;28;20682;-55
2022/05/05 10:46:51;;;;;;;5.72;5.22;;;;;;;21.82;63.99;166280.06;4970973;28;20049;-55
2022/05/05 10:49:37;;;;;;;5.80;5.15;;;;;;;22.05;63.36;166339.84;4972431;28;20025;-55
2022/05/05 10:52:12;;;;;;;5.30;4.80;;;;;;;21.76;62.48;166263.78;4971354;28;20697;-54
2022/05/05 10:54:39;;;;;;;14.27;6.18;;;;;;;21.37;65.27;166160.47;4972400;28;20031;-54
2022/05/05 10:57:23;;;;;;;13.40;6.27;;;;;;;20.97;68.06;166054.53;4970975;28;20074;-54
2022/05/05 11:00:07;;;;;;;10.13;5.50;;;;;;;21.12;66.04;166093.94;4972229;28;20018;-55
2022/05/05 11:02:34;;;;;;;9.18;6.25;;;;;;;20.78;62.78;166005.69;4970906;28;20069;-54
2022/05/05 11:05:28;;;;;;;8.98;5.30;;;;;;;20.79;61.15;166008.41;4972033;28;20026;-55
2022/05/05 11:07:55;;;;;;;7.90;5.90;;;;;;;20.74;62.04;165994.78;4971013;28;20116;-55
2022/05/05 11:10:38;;;;;;;8.68;6.18;;;;;;;21.16;63.09;166104.78;4972703;28;20031;-54
2022/05/05 11:13:04;;;;;;;8.35;5.78;;;;;;;21.31;60.38;166144.19;4970368;28;20047;-55
2022/05/05 11:21:33;;;;;;;5.80;5.22;;;;;;;22.54;69.49;166468.97;4970790;28;20457;-55
2022/05/05 11:24:00;;;;;;;5.75;5.25;;;;;;;22.54;64.27;166467.59;4972323;28;20031;-55
2022/05/05 11:26:26;;;;;;;14.45;5.60;;;;;;;22.21;65.90;166380.59;4970498;28;20038;-55
2022/05/05 11:28:53;;;;;;;11.93;5.32;;;;;;;22.50;65.82;166459.47;4972275;28;20023;-55
2022/05/05 11:31:21;;;;;;;11.07;6.38;;;;;;;22.67;59.69;166502.97;4981418;28;20045;-55
2022/05/05 11:33:55;;;;;;;8.48;5.53;;;;;;;21.83;60.78;166282.78;4994937;28;20732;-54
2022/05/05 11:36:25;;;;;;;8.48;5.78;;;;;;;21.64;59.92;166232.53;4994011;28;20100;-55
2022/05/05 11:38:51;;;;;;;11.20;5.63;;;;;;;21.42;61.54;166174.03;4995581;28;20475;-55
2022/05/05 11:41:18;;;;;;;10.45;6.60;;;;;;;21.08;60.76;166085.78;4993734;28;20043;-55
2022/05/05 11:46:27;;;;;;;9.77;5.80;;;;;;;21.50;60.29;166195.78;4993817;28;20274;-55
2022/05/05 11:48:55;;;;;;;6.13;5.13;;;;;;;21.32;58.57;166146.91;4994785;28;20023;-55
2022/05/05 11:51:25;;;;;;;5.53;5.13;;;;;;;21.18;55.99;166111.63;4993933;28;20177;-54
2022/05/05 11:54:01;;;;;;;10.27;5.43;;;;;;;21.55;62.38;166208.00;4975901;28;20793;-54
2022/05/05 11:56:28;;;;;;;6.13;5.45;;;;;;;21.43;60.99;166176.78;4973981;28;20128;-55